Lee, Illinois
Current Conditions -  °F | °C
As of 4:35 PM on Friday 24 Oct 2014 (Local Time) from KRPJ Reporting Station
Clear Clear  
Wind Chill: 66°   Ceiling: Unl
Heat Index: 66°   Visibility: 10mi
Dew Point: 46°   Wind: 7mph
Humidity: 49%   Direction: 200°SSW
Pressure: 29.95"   Gusts: NA
Location:  41.8°N, 88.94°W
Report Text: KRPJ 242135Z AUTO 20006KT 10SM CLR 19/08 A2995 RMK AO2 T01870078
Loading
Personal Weather Stations






























Interactive Weather Map
Tropical Storm Tracking
New forecast layout! Learn more

10-Day Weather Forecast

Advertisements
Track Severe Weather on mobile